createdAt,value
2022-11-30T00:01:10.207Z,101078.00
2022-11-30T00:03:37.436Z,101068.31
2022-11-30T00:06:05.967Z,101072.75
2022-11-30T00:08:32.610Z,101070.13
2022-11-30T00:10:59.348Z,101078.00
2022-11-30T00:13:26.000Z,101073.31
2022-11-30T00:15:52.646Z,101071.44
2022-11-30T00:18:20.460Z,101082.31
2022-11-30T00:20:47.073Z,101077.53
2022-11-30T00:23:13.687Z,101079.66
2022-11-30T00:25:40.322Z,101075.38
2022-11-30T00:28:07.234Z,101073.59
2022-11-30T00:30:33.951Z,101080.53
2022-11-30T00:33:00.816Z,101085.69
2022-11-30T00:35:27.456Z,101082.50
2022-11-30T00:37:54.122Z,101081.75
2022-11-30T00:40:20.803Z,101084.66
2022-11-30T00:42:47.522Z,101079.22
2022-11-30T00:45:14.300Z,101079.69
2022-11-30T00:47:41.003Z,101083.63
2022-11-30T00:50:08.248Z,101088.78
2022-11-30T00:52:34.870Z,101085.31
2022-11-30T00:55:04.087Z,101089.53
2022-11-30T00:57:31.220Z,101100.66
2022-11-30T00:59:58.013Z,101098.81
2022-11-30T01:02:24.819Z,101092.53
2022-11-30T01:04:51.767Z,101086.31
2022-11-30T01:07:18.513Z,101087.28
2022-11-30T01:09:45.193Z,101083.16
2022-11-30T01:12:11.896Z,101073.09
2022-11-30T01:14:38.587Z,101085.22
2022-11-30T01:17:05.268Z,101073.41
2022-11-30T01:19:31.974Z,101075.63
2022-11-30T01:21:58.996Z,101079.13
2022-11-30T01:24:25.687Z,101073.69
2022-11-30T01:26:52.517Z,101078.53
2022-11-30T01:29:19.221Z,101075.06
2022-11-30T01:31:46.008Z,101063.75
2022-11-30T01:34:12.696Z,101064.00
2022-11-30T01:36:39.427Z,101068.03
2022-11-30T01:39:09.256Z,101065.59
2022-11-30T01:41:36.765Z,101059.22
2022-11-30T01:44:07.005Z,101066.16
2022-11-30T01:46:42.639Z,101058.66
2022-11-30T01:49:09.349Z,101064.66
2022-11-30T01:51:40.362Z,101066.25
2022-11-30T01:54:10.707Z,101069.81
2022-11-30T01:56:42.185Z,101069.63
2022-11-30T01:59:09.671Z,101077.31
2022-11-30T02:01:36.432Z,101068.50
2022-11-30T02:04:09.979Z,101065.75
2022-11-30T02:06:36.766Z,101065.13
2022-11-30T02:09:03.625Z,101061.16
2022-11-30T02:11:30.720Z,101060.31
2022-11-30T02:14:10.693Z,101054.78
2022-11-30T02:16:57.249Z,101047.09
2022-11-30T02:19:36.279Z,101060.31
2022-11-30T02:22:12.259Z,101051.84
2022-11-30T02:24:53.895Z,101048.28
2022-11-30T02:27:54.260Z,101049.91
2022-11-30T02:30:23.524Z,101055.00
2022-11-30T02:32:58.996Z,101045.41
2022-11-30T02:35:30.436Z,101039.50
2022-11-30T02:38:00.637Z,101045.88
2022-11-30T02:40:27.711Z,101045.97
2022-11-30T02:42:57.291Z,101040.00
2022-11-30T02:45:36.181Z,101049.81
2022-11-30T02:48:11.446Z,101049.16
2022-11-30T02:50:45.556Z,101047.19
2022-11-30T02:53:13.276Z,101051.50
2022-11-30T02:55:40.123Z,101040.88
2022-11-30T02:58:06.979Z,101048.59
2022-11-30T03:00:33.692Z,101044.53
2022-11-30T03:03:00.694Z,101043.25
2022-11-30T03:05:27.499Z,101035.88
2022-11-30T03:07:54.391Z,101038.97
2022-11-30T03:10:21.146Z,101045.63
2022-11-30T03:12:47.933Z,101035.22
2022-11-30T03:15:14.759Z,101043.09
2022-11-30T03:17:41.446Z,101039.97
2022-11-30T03:20:09.612Z,101044.13
2022-11-30T03:22:36.314Z,101047.50
2022-11-30T03:25:03.065Z,101048.00
2022-11-30T03:27:29.765Z,101044.84
2022-11-30T03:29:56.442Z,101041.69
2022-11-30T03:32:23.148Z,101047.00
2022-11-30T03:34:50.057Z,101043.34
2022-11-30T03:37:16.943Z,101051.44
2022-11-30T03:39:43.610Z,101045.81
2022-11-30T03:42:10.302Z,101047.31
2022-11-30T03:44:37.050Z,101045.84
2022-11-30T03:47:03.819Z,101046.50
2022-11-30T03:49:30.565Z,101045.22
2022-11-30T03:51:57.372Z,101049.00
2022-11-30T03:54:24.044Z,101034.28
2022-11-30T03:56:50.761Z,101045.97
2022-11-30T03:59:17.469Z,101046.06
2022-11-30T04:01:44.229Z,101048.59
2022-11-30T04:04:12.055Z,101031.13
2022-11-30T04:06:39.115Z,101048.22
2022-11-30T04:09:05.921Z,101037.50
2022-11-30T04:11:32.582Z,101045.47
2022-11-30T04:13:59.249Z,101046.97
2022-11-30T04:16:25.941Z,101040.13
2022-11-30T04:18:52.849Z,101040.84
2022-11-30T04:21:19.667Z,101032.22
2022-11-30T04:23:46.361Z,101043.25
2022-11-30T04:26:15.332Z,101043.56
2022-11-30T04:28:42.880Z,101048.22
2022-11-30T04:31:10.372Z,101052.41
2022-11-30T04:33:37.480Z,101046.78
2022-11-30T04:36:05.962Z,101045.59
2022-11-30T04:38:34.139Z,101040.16
2022-11-30T04:41:06.878Z,101044.16
2022-11-30T04:43:33.622Z,101055.13
2022-11-30T04:46:00.314Z,101045.03
2022-11-30T04:48:27.183Z,101051.97
2022-11-30T04:50:53.797Z,101044.28
2022-11-30T04:53:20.508Z,101048.28
2022-11-30T04:55:47.204Z,101048.72
2022-11-30T04:58:13.868Z,101045.28
2022-11-30T05:00:40.522Z,101054.97
2022-11-30T05:03:07.144Z,101056.81
2022-11-30T05:05:33.879Z,101056.00
2022-11-30T05:08:00.651Z,101049.13
2022-11-30T05:10:28.884Z,101058.50
2022-11-30T05:12:57.160Z,101059.75
2022-11-30T05:15:23.915Z,101068.00
2022-11-30T05:17:50.564Z,101060.00
2022-11-30T05:20:17.456Z,101063.09
2022-11-30T05:22:44.125Z,101058.66
2022-11-30T05:25:10.970Z,101059.38
2022-11-30T05:27:38.213Z,101055.25
2022-11-30T05:30:05.854Z,101060.72
2022-11-30T05:32:33.026Z,101064.22
2022-11-30T05:34:59.841Z,101069.91
2022-11-30T05:37:26.624Z,101059.69
2022-11-30T05:39:53.379Z,101068.72
2022-11-30T05:42:20.141Z,101067.59
2022-11-30T05:44:48.089Z,101068.97
2022-11-30T05:47:15.876Z,101064.84
2022-11-30T05:49:42.901Z,101071.03
2022-11-30T05:52:09.621Z,101072.00
2022-11-30T05:54:36.384Z,101067.09
2022-11-30T05:57:03.243Z,101068.63
2022-11-30T05:59:29.910Z,101056.97
2022-11-30T06:01:56.711Z,101072.34
2022-11-30T06:04:23.529Z,101075.16
2022-11-30T06:06:52.235Z,101069.91
2022-11-30T06:09:19.004Z,101071.59
2022-11-30T06:11:45.770Z,101080.63
2022-11-30T06:14:12.555Z,101079.91
2022-11-30T06:16:39.981Z,101090.25
2022-11-30T06:19:07.066Z,101094.66
2022-11-30T06:21:33.789Z,101092.91
2022-11-30T06:24:00.528Z,101101.06
2022-11-30T06:26:27.195Z,101099.28
2022-11-30T06:28:53.885Z,101103.56
2022-11-30T06:31:20.686Z,101104.13
2022-11-30T06:33:47.416Z,101105.94
2022-11-30T06:36:14.112Z,101106.97
2022-11-30T06:38:40.874Z,101109.59
2022-11-30T06:41:09.759Z,101097.97
2022-11-30T06:43:38.001Z,101112.25
2022-11-30T06:46:07.881Z,101122.31
2022-11-30T06:48:35.995Z,101108.16
2022-11-30T06:51:06.477Z,101113.22
2022-11-30T06:53:33.294Z,101112.06
2022-11-30T06:56:09.661Z,101114.69
2022-11-30T06:58:39.278Z,101106.47
2022-11-30T07:01:11.445Z,101110.69
2022-11-30T07:03:38.759Z,101124.25
2022-11-30T07:06:10.358Z,101115.44
2022-11-30T07:08:37.415Z,101110.94
2022-11-30T07:11:04.624Z,101118.94
2022-11-30T07:13:31.685Z,101117.13
2022-11-30T07:15:58.391Z,101114.81
2022-11-30T07:18:31.481Z,101114.28
2022-11-30T07:21:04.132Z,101116.72
2022-11-30T07:23:55.925Z,101119.34
2022-11-30T07:26:23.663Z,101117.69
2022-11-30T07:28:54.762Z,101116.09
2022-11-30T07:31:23.315Z,101119.84
2022-11-30T07:33:50.786Z,101125.00
2022-11-30T07:36:19.470Z,101109.53
2022-11-30T07:38:46.469Z,101105.47
2022-11-30T07:41:13.157Z,101109.69
2022-11-30T07:43:40.614Z,101104.63
2022-11-30T07:46:07.878Z,101114.00
2022-11-30T07:48:35.247Z,101118.63
2022-11-30T07:51:07.143Z,101115.88
2022-11-30T07:53:34.168Z,101109.94
2022-11-30T07:56:09.723Z,101127.94
2022-11-30T07:58:37.191Z,101116.38
2022-11-30T08:01:13.583Z,101127.13
2022-11-30T08:03:40.597Z,101125.31
2022-11-30T08:06:10.354Z,101122.69
2022-11-30T08:08:40.126Z,101128.50
2022-11-30T08:11:08.709Z,101113.19
2022-11-30T08:13:35.556Z,101113.59
2022-11-30T08:16:04.493Z,101117.09
2022-11-30T08:18:31.271Z,101115.09
2022-11-30T08:21:03.141Z,101110.78
2022-11-30T08:23:32.391Z,101115.72
2022-11-30T08:26:06.253Z,101116.19
2022-11-30T08:28:36.155Z,101110.91
2022-11-30T08:31:15.690Z,101120.28
2022-11-30T08:33:42.896Z,101110.72
2022-11-30T08:36:14.666Z,101105.44
2022-11-30T08:38:43.317Z,101100.72
2022-11-30T08:41:11.327Z,101101.03
2022-11-30T08:43:38.016Z,101097.97
2022-11-30T08:46:27.395Z,101104.06
2022-11-30T08:49:12.504Z,101115.03
2022-11-30T08:52:14.660Z,101121.53
2022-11-30T08:54:27.545Z,101122.59
2022-11-30T08:56:54.207Z,101121.44
2022-11-30T08:59:21.052Z,101122.28
2022-11-30T09:01:47.657Z,101121.22
2022-11-30T09:04:14.307Z,101127.78
2022-11-30T09:06:41.956Z,101126.00
2022-11-30T09:09:08.706Z,101139.88
2022-11-30T09:11:35.600Z,101131.44
2022-11-30T09:14:09.102Z,101133.78
2022-11-30T09:16:36.031Z,101127.88
2022-11-30T09:19:02.761Z,101119.66
2022-11-30T09:21:29.633Z,101120.22
2022-11-30T09:23:56.737Z,101117.91
2022-11-30T09:26:25.239Z,101111.78
2022-11-30T09:28:53.734Z,101106.81
2022-11-30T09:31:25.017Z,101118.38
2022-11-30T09:33:53.068Z,101114.31
2022-11-30T09:36:21.713Z,101120.91
2022-11-30T09:38:49.086Z,101122.63
2022-11-30T09:41:34.380Z,101115.16
2022-11-30T09:44:43.209Z,101116.94
2022-11-30T09:47:27.625Z,101112.09
2022-11-30T09:50:04.936Z,101112.31
2022-11-30T09:52:42.706Z,101104.84
2022-11-30T09:55:12.235Z,101109.91
2022-11-30T09:58:24.919Z,101101.91
2022-11-30T10:00:51.727Z,101104.44
2022-11-30T10:03:20.520Z,101090.34
2022-11-30T10:05:57.055Z,101096.31
2022-11-30T10:08:51.000Z,101095.38
2022-11-30T10:11:55.114Z,101104.63
2022-11-30T10:14:27.989Z,101107.16
2022-11-30T10:17:10.112Z,101094.94
2022-11-30T10:19:51.689Z,101098.63
2022-11-30T10:22:56.947Z,101102.94
2022-11-30T10:25:33.089Z,101085.28
2022-11-30T10:28:52.384Z,101086.13
2022-11-30T10:31:38.378Z,101077.94
2022-11-30T10:34:20.698Z,101075.31
2022-11-30T10:37:01.284Z,101059.06
2022-11-30T10:39:36.467Z,101061.06
2022-11-30T10:42:06.163Z,101060.00
2022-11-30T10:44:40.367Z,101065.38
2022-11-30T10:47:51.598Z,101057.16
2022-11-30T10:50:18.635Z,101058.63
2022-11-30T10:52:48.906Z,101056.66
2022-11-30T10:55:19.632Z,101062.84
2022-11-30T10:57:49.884Z,101067.06
2022-11-30T11:00:18.204Z,101076.13
2022-11-30T11:02:48.107Z,101061.38
2022-11-30T11:05:22.565Z,101063.78
2022-11-30T11:08:02.995Z,101059.63
2022-11-30T11:10:51.575Z,101062.63
2022-11-30T11:13:41.194Z,101073.38
2022-11-30T11:16:11.145Z,101059.41
2022-11-30T11:18:54.294Z,101065.28
2022-11-30T11:21:23.512Z,101060.53
2022-11-30T11:23:52.744Z,101036.94
2022-11-30T11:26:28.423Z,101042.84
2022-11-30T11:28:59.498Z,101048.75
2022-11-30T11:31:39.091Z,101045.28
2022-11-30T11:34:22.642Z,101031.88
2022-11-30T11:37:15.070Z,101042.94
2022-11-30T11:39:41.833Z,101033.59
2022-11-30T11:42:22.457Z,101032.41
2022-11-30T11:44:52.678Z,101037.69
2022-11-30T11:47:27.037Z,101032.09
2022-11-30T11:50:43.320Z,101025.97
2022-11-30T11:53:39.574Z,101029.56
2022-11-30T11:56:32.298Z,101032.09
2022-11-30T11:59:03.420Z,101027.44
2022-11-30T12:01:59.716Z,101023.84
2022-11-30T12:04:41.738Z,101029.97
2022-11-30T12:07:22.746Z,101029.13
2022-11-30T12:10:21.890Z,101020.03
2022-11-30T12:12:55.285Z,101023.66
2022-11-30T12:15:48.400Z,101022.69
2022-11-30T12:18:24.417Z,101029.31
2022-11-30T12:20:54.015Z,101029.94
2022-11-30T12:23:26.525Z,101012.44
2022-11-30T12:26:16.799Z,101015.94
2022-11-30T12:28:55.671Z,101012.56
2022-11-30T12:31:34.540Z,101011.59
2022-11-30T12:34:11.376Z,101014.97
2022-11-30T12:37:03.367Z,101015.31
2022-11-30T12:39:42.688Z,101015.31
2022-11-30T12:42:18.638Z,101014.47
2022-11-30T12:45:04.052Z,101014.97
2022-11-30T12:47:49.606Z,101019.41
2022-11-30T12:50:27.594Z,101013.06
2022-11-30T12:53:11.088Z,101014.44
2022-11-30T12:55:54.721Z,101010.84
2022-11-30T12:58:50.373Z,101012.72
2022-11-30T13:01:42.030Z,101008.22
2022-11-30T13:04:28.484Z,101006.75
2022-11-30T13:07:02.919Z,101013.91
2022-11-30T13:09:38.636Z,101013.38
2022-11-30T13:12:15.152Z,101009.88
2022-11-30T13:14:42.881Z,101013.56
2022-11-30T13:17:17.756Z,101005.34
2022-11-30T13:20:04.692Z,101008.59
2022-11-30T13:22:49.116Z,101024.75
2022-11-30T13:26:11.972Z,101021.91
2022-11-30T13:28:41.668Z,101016.25
2022-11-30T13:31:15.291Z,101027.06
2022-11-30T13:33:54.215Z,101011.78
2022-11-30T13:36:23.445Z,101016.75
2022-11-30T13:39:12.244Z,101021.03
2022-11-30T13:41:40.404Z,101018.47
2022-11-30T13:44:24.267Z,101029.22
2022-11-30T13:46:53.396Z,101023.84
2022-11-30T13:49:28.409Z,101013.59
2022-11-30T13:52:20.592Z,101007.56
2022-11-30T13:54:57.324Z,101003.03
2022-11-30T13:57:24.805Z,101008.28
2022-11-30T13:59:53.387Z,101008.22
2022-11-30T14:02:32.473Z,101009.69
2022-11-30T14:05:18.229Z,101015.81
2022-11-30T14:08:00.460Z,101025.38
2022-11-30T14:10:44.968Z,101011.50
2022-11-30T14:13:11.693Z,101016.53
2022-11-30T14:15:38.264Z,101015.47
2022-11-30T14:18:08.065Z,101018.22
2022-11-30T14:20:39.176Z,101018.34
2022-11-30T14:23:15.214Z,101019.16
2022-11-30T14:25:48.245Z,101014.34
2022-11-30T14:28:24.007Z,101019.75
2022-11-30T14:30:51.038Z,101021.09
2022-11-30T14:33:22.640Z,101019.31
2022-11-30T14:35:55.539Z,101014.78
2022-11-30T14:38:33.637Z,101010.97
2022-11-30T14:41:00.608Z,101012.13
2022-11-30T14:43:27.328Z,101005.94
2022-11-30T14:46:05.590Z,101010.25
2022-11-30T14:48:33.900Z,101003.75
2022-11-30T14:51:05.524Z,101004.88
2022-11-30T14:53:52.605Z,101008.69
2022-11-30T14:56:43.504Z,101013.53
2022-11-30T14:59:47.569Z,101015.34
2022-11-30T15:02:21.428Z,101014.91
2022-11-30T15:04:51.869Z,101018.81
2022-11-30T15:07:19.197Z,101020.59
2022-11-30T15:09:50.126Z,101023.25
2022-11-30T15:12:24.184Z,101025.00
2022-11-30T15:15:16.041Z,101025.97
2022-11-30T15:17:57.697Z,101022.59
2022-11-30T15:20:26.220Z,101028.72
2022-11-30T15:22:54.937Z,101026.41
2022-11-30T15:25:25.695Z,101023.47
2022-11-30T15:27:52.786Z,101030.41
2022-11-30T15:30:19.635Z,101032.53
2022-11-30T15:32:49.948Z,101032.03
2022-11-30T15:35:34.165Z,101040.22
2022-11-30T15:38:10.584Z,101038.66
2022-11-30T15:40:37.336Z,101044.97
2022-11-30T15:43:04.684Z,101045.69
2022-11-30T15:45:35.435Z,101055.28
2022-11-30T15:48:03.822Z,101048.88
2022-11-30T15:50:35.563Z,101043.59
2022-11-30T15:53:22.632Z,101056.09
2022-11-30T15:55:55.753Z,101047.94
2022-11-30T15:58:45.721Z,101047.72
2022-11-30T16:01:12.686Z,101044.63
2022-11-30T16:04:02.151Z,101055.25
2022-11-30T16:06:28.854Z,101046.31
2022-11-30T16:08:57.277Z,101050.53
2022-11-30T16:11:24.210Z,101048.75
2022-11-30T16:13:50.971Z,101051.69
2022-11-30T16:16:20.921Z,101058.34
2022-11-30T16:18:48.230Z,101060.00
2022-11-30T16:21:18.054Z,101055.78
2022-11-30T16:23:45.638Z,101058.31
2022-11-30T16:26:43.198Z,101058.03
2022-11-30T16:29:01.253Z,101057.16
2022-11-30T16:31:27.981Z,101058.25
2022-11-30T16:33:54.821Z,101051.28
2022-11-30T16:36:21.901Z,101044.13
2022-11-30T16:38:50.005Z,101052.75
2022-11-30T16:41:24.342Z,101056.56
2022-11-30T16:43:54.561Z,101052.97
2022-11-30T16:46:26.555Z,101051.28
2022-11-30T16:48:54.040Z,101050.66
2022-11-30T16:51:24.767Z,101048.75
2022-11-30T16:53:51.779Z,101049.38
2022-11-30T16:56:18.533Z,101048.97
2022-11-30T16:58:45.880Z,101051.81
2022-11-30T17:01:20.691Z,101059.06
2022-11-30T17:03:50.927Z,101058.88
2022-11-30T17:06:21.054Z,101055.06
2022-11-30T17:08:49.175Z,101062.22
2022-11-30T17:11:29.527Z,101052.78
2022-11-30T17:13:56.519Z,101064.34
2022-11-30T17:16:23.415Z,101058.25
2022-11-30T17:18:50.524Z,101060.34
2022-11-30T17:21:21.849Z,101066.66
2022-11-30T17:23:48.566Z,101063.28
2022-11-30T17:26:15.249Z,101057.59
2022-11-30T17:28:42.314Z,101061.28
2022-11-30T17:31:10.628Z,101048.66
2022-11-30T17:33:38.227Z,101060.66
2022-11-30T17:36:07.428Z,101058.84
2022-11-30T17:38:35.358Z,101064.66
2022-11-30T17:41:06.805Z,101061.38
2022-11-30T17:43:35.626Z,101062.44
2022-11-30T17:46:15.757Z,101058.84
2022-11-30T17:48:43.818Z,101057.16
2022-11-30T17:51:11.107Z,101063.91
2022-11-30T17:53:39.371Z,101059.81
2022-11-30T17:56:08.954Z,101067.16
2022-11-30T17:58:43.411Z,101068.75
2022-11-30T18:01:17.998Z,101074.56
2022-11-30T18:03:45.489Z,101072.97
2022-11-30T18:06:12.929Z,101069.50
2022-11-30T18:08:40.247Z,101062.75
2022-11-30T18:11:15.046Z,101063.38
2022-11-30T18:13:41.760Z,101070.22
2022-11-30T18:16:26.803Z,101064.97
2022-11-30T18:18:55.905Z,101075.19
2022-11-30T18:21:23.905Z,101063.28
2022-11-30T18:23:51.660Z,101063.09
2022-11-30T18:26:22.090Z,101071.69
2022-11-30T18:28:57.083Z,101074.22
2022-11-30T18:31:24.540Z,101079.72
2022-11-30T18:34:04.549Z,101081.19
2022-11-30T18:36:32.770Z,101078.75
2022-11-30T18:38:59.442Z,101090.56
2022-11-30T18:41:28.655Z,101080.03
2022-11-30T18:43:55.422Z,101094.78
2022-11-30T18:46:22.585Z,101091.09
2022-11-30T18:48:50.791Z,101087.06
2022-11-30T18:51:25.983Z,101088.75
2022-11-30T18:53:58.453Z,101081.41
2022-11-30T18:56:26.772Z,101084.25
2022-11-30T18:58:58.809Z,101082.44
2022-11-30T19:01:26.539Z,101082.66
2022-11-30T19:03:58.417Z,101078.44
2022-11-30T19:06:28.460Z,101080.25
2022-11-30T19:08:56.096Z,101092.75
2022-11-30T19:11:22.807Z,101087.69
2022-11-30T19:13:54.280Z,101083.38
2022-11-30T19:16:21.459Z,101084.13
2022-11-30T19:18:48.856Z,101084.25
2022-11-30T19:21:17.654Z,101085.72
2022-11-30T19:23:45.347Z,101077.94
2022-11-30T19:26:13.883Z,101082.97
2022-11-30T19:28:43.230Z,101079.69
2022-11-30T19:31:12.515Z,101084.13
2022-11-30T19:33:41.560Z,101083.19
2022-11-30T19:36:16.971Z,101092.03
2022-11-30T19:38:44.227Z,101080.34
2022-11-30T19:41:13.228Z,101088.69
2022-11-30T19:43:40.485Z,101090.22
2022-11-30T19:46:12.849Z,101090.13
2022-11-30T19:48:40.801Z,101084.44
2022-11-30T19:51:13.510Z,101087.91
2022-11-30T19:53:44.849Z,101096.25
2022-11-30T19:56:17.412Z,101094.66
2022-11-30T19:58:45.822Z,101088.53
2022-11-30T20:01:17.352Z,101086.97
2022-11-30T20:03:46.973Z,101092.53
2022-11-30T20:06:13.775Z,101101.81
2022-11-30T20:08:41.052Z,101096.66
2022-11-30T20:11:12.183Z,101090.44
2022-11-30T20:13:39.618Z,101093.81
2022-11-30T20:16:14.174Z,101095.38
2022-11-30T20:18:46.066Z,101094.00
2022-11-30T20:21:14.924Z,101104.66
2022-11-30T20:23:42.909Z,101106.66
2022-11-30T20:26:14.182Z,101099.28
2022-11-30T20:28:40.969Z,101116.34
2022-11-30T20:31:12.530Z,101103.94
2022-11-30T20:33:39.606Z,101102.03
2022-11-30T20:36:08.732Z,101108.03
2022-11-30T20:38:36.070Z,101103.00
2022-11-30T20:41:03.523Z,101096.78
2022-11-30T20:43:30.857Z,101103.41
2022-11-30T20:45:57.570Z,101112.47
2022-11-30T20:48:24.330Z,101109.31
2022-11-30T20:51:14.063Z,101108.75
2022-11-30T20:53:38.240Z,101107.41
2022-11-30T20:56:05.233Z,101106.25
2022-11-30T20:58:32.310Z,101116.66
2022-11-30T21:01:00.095Z,101108.97
2022-11-30T21:03:27.436Z,101110.78
2022-11-30T21:05:54.579Z,101107.72
2022-11-30T21:08:21.293Z,101119.28
2022-11-30T21:10:47.938Z,101114.78
2022-11-30T21:13:15.215Z,101102.56
2022-11-30T21:15:41.948Z,101105.91
2022-11-30T21:18:08.571Z,101103.41
2022-11-30T21:20:35.330Z,101108.03
2022-11-30T21:23:02.029Z,101106.25
2022-11-30T21:25:28.743Z,101101.41
2022-11-30T21:27:55.448Z,101109.41
2022-11-30T21:30:22.320Z,101115.94
2022-11-30T21:32:48.933Z,101117.09
2022-11-30T21:35:15.668Z,101108.16
2022-11-30T21:37:42.340Z,101106.56
2022-11-30T21:40:09.629Z,101098.34
2022-11-30T21:42:39.656Z,101103.00
2022-11-30T21:45:06.365Z,101105.19
2022-11-30T21:47:33.198Z,101114.25
2022-11-30T21:50:00.002Z,101109.81
2022-11-30T21:52:26.899Z,101115.84
2022-11-30T21:54:53.907Z,101109.63
2022-11-30T21:57:23.610Z,101113.81
2022-11-30T21:59:50.586Z,101117.53
2022-11-30T22:02:17.412Z,101111.28
2022-11-30T22:04:44.117Z,101109.41
2022-11-30T22:07:13.966Z,101107.22
2022-11-30T22:09:40.994Z,101107.72
2022-11-30T22:12:07.704Z,101107.94
2022-11-30T22:14:36.272Z,101110.03
2022-11-30T22:17:02.945Z,101107.94
2022-11-30T22:19:29.641Z,101105.19
2022-11-30T22:21:56.568Z,101109.31
2022-11-30T22:24:23.238Z,101103.28
2022-11-30T22:26:50.026Z,101111.72
2022-11-30T22:29:19.442Z,101103.28
2022-11-30T22:31:49.138Z,101098.88
2022-11-30T22:34:16.140Z,101110.78
2022-11-30T22:36:44.386Z,101107.09
2022-11-30T22:39:16.058Z,101106.13
2022-11-30T22:41:45.255Z,101103.72
2022-11-30T22:44:16.682Z,101103.94
2022-11-30T22:46:46.925Z,101092.34
2022-11-30T22:49:20.208Z,101093.41
2022-11-30T22:51:48.137Z,101092.13
2022-11-30T22:54:14.898Z,101094.44
2022-11-30T22:56:41.781Z,101095.50
2022-11-30T22:59:11.593Z,101095.00
2022-11-30T23:01:42.682Z,101096.56
2022-11-30T23:04:14.503Z,101090.22
2022-11-30T23:06:42.633Z,101070.88
2022-11-30T23:09:13.159Z,101081.94
2022-11-30T23:11:40.128Z,101084.03
2022-11-30T23:14:08.249Z,101083.91
2022-11-30T23:16:35.904Z,101080.03
2022-11-30T23:19:02.783Z,101080.25
2022-11-30T23:21:37.498Z,101085.28
2022-11-30T23:24:10.969Z,101080.03
2022-11-30T23:26:38.468Z,101089.59
2022-11-30T23:29:07.402Z,101085.41
2022-11-30T23:31:37.252Z,101083.41
2022-11-30T23:34:06.761Z,101075.91
2022-11-30T23:36:34.766Z,101076.56
2022-11-30T23:39:23.360Z,101077.59
2022-11-30T23:41:50.298Z,101072.22
2022-11-30T23:44:17.171Z,101075.72
2022-11-30T23:46:44.044Z,101075.63
2022-11-30T23:49:14.010Z,101079.69
2022-11-30T23:51:41.147Z,101082.22
2022-11-30T23:54:07.860Z,101080.34
2022-11-30T23:56:36.914Z,101081.19
2022-11-30T23:59:03.826Z,101078.44
